sensor_id;sensor_type;location;lat;lon;timestamp;pressure;altitude;pressure_sealevel;temperature;humidity
31299;BME280;17927;52.350;13.402;2022-08-19T00:00:39;100564.75;;;27.20;56.30
31299;BME280;17927;52.350;13.402;2022-08-19T00:03:05;100551.44;;;27.17;56.23
31299;BME280;17927;52.350;13.402;2022-08-19T00:05:30;100548.34;;;27.13;56.26
31299;BME280;17927;52.350;13.402;2022-08-19T00:07:56;100548.84;;;27.10;56.49
31299;BME280;17927;52.350;13.402;2022-08-19T00:10:22;100545.75;;;27.07;56.59
31299;BME280;17927;52.350;13.402;2022-08-19T00:12:48;100544.34;;;27.04;56.90
31299;BME280;17927;52.350;13.402;2022-08-19T00:15:16;100542.94;;;27.01;56.76
31299;BME280;17927;52.350;13.402;2022-08-19T00:17:43;100543.47;;;26.98;56.88
31299;BME280;17927;52.350;13.402;2022-08-19T00:20:11;100542.88;;;26.96;57.15
31299;BME280;17927;52.350;13.402;2022-08-19T00:22:37;100538.94;;;26.92;57.15
31299;BME280;17927;52.350;13.402;2022-08-19T00:25:03;100538.63;;;26.88;57.09
31299;BME280;17927;52.350;13.402;2022-08-19T00:27:30;100531.66;;;26.86;57.27
31299;BME280;17927;52.350;13.402;2022-08-19T00:29:55;100531.09;;;26.84;57.54
31299;BME280;17927;52.350;13.402;2022-08-19T00:32:20;100519.41;;;26.82;57.48
31299;BME280;17927;52.350;13.402;2022-08-19T00:34:46;100529.41;;;26.83;57.47
31299;BME280;17927;52.350;13.402;2022-08-19T00:37:11;100522.66;;;26.79;57.38
31299;BME280;17927;52.350;13.402;2022-08-19T00:39:37;100507.66;;;26.74;57.71
31299;BME280;17927;52.350;13.402;2022-08-19T00:42:02;100505.38;;;26.71;57.75
31299;BME280;17927;52.350;13.402;2022-08-19T00:44:28;100503.75;;;26.70;57.81
31299;BME280;17927;52.350;13.402;2022-08-19T00:46:57;100509.28;;;26.70;58.06
31299;BME280;17927;52.350;13.402;2022-08-19T00:52:23;100510.88;;;26.66;57.94
31299;BME280;17927;52.350;13.402;2022-08-19T00:54:49;100504.75;;;26.64;57.93
31299;BME280;17927;52.350;13.402;2022-08-19T00:57:18;100504.75;;;26.64;58.27
31299;BME280;17927;52.350;13.402;2022-08-19T00:59:47;100508.34;;;26.65;58.19
31299;BME280;17927;52.350;13.402;2022-08-19T01:02:17;100516.09;;;26.63;58.12
31299;BME280;17927;52.350;13.402;2022-08-19T01:04:42;100527.41;;;26.61;58.47
31299;BME280;17927;52.350;13.402;2022-08-19T01:07:07;100512.16;;;26.58;58.35
31299;BME280;17927;52.350;13.402;2022-08-19T01:09:33;100518.53;;;26.59;58.43
31299;BME280;17927;52.350;13.402;2022-08-19T01:11:58;100514.94;;;26.58;58.69
31299;BME280;17927;52.350;13.402;2022-08-19T01:14:24;100525.75;;;26.60;58.71
31299;BME280;17927;52.350;13.402;2022-08-19T01:16:51;100508.31;;;26.59;58.87
31299;BME280;17927;52.350;13.402;2022-08-19T01:19:29;100513.25;;;26.57;58.78
31299;BME280;17927;52.350;13.402;2022-08-19T01:22:02;100508.81;;;26.56;59.00
31299;BME280;17927;52.350;13.402;2022-08-19T01:24:29;100515.44;;;26.55;58.53
31299;BME280;17927;52.350;13.402;2022-08-19T01:26:56;100497.41;;;26.53;58.69
31299;BME280;17927;52.350;13.402;2022-08-19T01:29:21;100491.28;;;26.51;58.68
31299;BME280;17927;52.350;13.402;2022-08-19T01:31:46;100506.72;;;26.47;58.71
31299;BME280;17927;52.350;13.402;2022-08-19T01:34:12;100529.97;;;26.45;58.88
31299;BME280;17927;52.350;13.402;2022-08-19T01:36:44;100540.47;;;26.43;59.01
31299;BME280;17927;52.350;13.402;2022-08-19T01:39:17;100531.91;;;26.45;58.95
31299;BME280;17927;52.350;13.402;2022-08-19T01:41:44;100517.72;;;26.41;58.81
31299;BME280;17927;52.350;13.402;2022-08-19T01:44:10;100515.81;;;26.42;59.18
31299;BME280;17927;52.350;13.402;2022-08-19T01:46:36;100526.56;;;26.38;58.92
31299;BME280;17927;52.350;13.402;2022-08-19T01:49:03;100522.34;;;26.36;59.48
31299;BME280;17927;52.350;13.402;2022-08-19T01:51:29;100533.94;;;26.33;59.48
31299;BME280;17927;52.350;13.402;2022-08-19T01:53:56;100533.38;;;26.31;59.32
31299;BME280;17927;52.350;13.402;2022-08-19T01:56:22;100518.94;;;26.28;59.45
31299;BME280;17927;52.350;13.402;2022-08-19T01:58:52;100509.78;;;26.28;59.54
31299;BME280;17927;52.350;13.402;2022-08-19T02:01:19;100497.81;;;26.22;59.74
31299;BME280;17927;52.350;13.402;2022-08-19T02:03:44;100470.88;;;26.18;59.91
31299;BME280;17927;52.350;13.402;2022-08-19T02:06:09;100476.94;;;26.14;59.66
31299;BME280;17927;52.350;13.402;2022-08-19T02:08:36;100484.91;;;26.11;60.00
31299;BME280;17927;52.350;13.402;2022-08-19T02:11:02;100487.88;;;26.09;60.14
31299;BME280;17927;52.350;13.402;2022-08-19T02:13:28;100489.81;;;26.09;60.06
31299;BME280;17927;52.350;13.402;2022-08-19T02:15:53;100475.97;;;26.09;59.92
31299;BME280;17927;52.350;13.402;2022-08-19T02:18:18;100456.63;;;26.09;59.84
31299;BME280;17927;52.350;13.402;2022-08-19T02:20:44;100444.69;;;26.08;59.97
31299;BME280;17927;52.350;13.402;2022-08-19T02:23:11;100431.97;;;26.07;59.96
31299;BME280;17927;52.350;13.402;2022-08-19T02:25:37;100426.09;;;26.04;60.14
31299;BME280;17927;52.350;13.402;2022-08-19T02:28:03;100427.44;;;26.01;60.12
31299;BME280;17927;52.350;13.402;2022-08-19T02:30:29;100421.59;;;25.97;60.48
31299;BME280;17927;52.350;13.402;2022-08-19T02:32:55;100422.91;;;25.95;60.20
31299;BME280;17927;52.350;13.402;2022-08-19T02:35:20;100424.00;;;25.94;60.30
31299;BME280;17927;52.350;13.402;2022-08-19T02:37:46;100429.81;;;25.92;60.24
31299;BME280;17927;52.350;13.402;2022-08-19T02:40:31;100440.28;;;25.90;60.42
31299;BME280;17927;52.350;13.402;2022-08-19T02:43:00;100443.63;;;25.92;60.63
31299;BME280;17927;52.350;13.402;2022-08-19T02:45:26;100443.63;;;25.92;60.53
31299;BME280;17927;52.350;13.402;2022-08-19T02:47:51;100448.09;;;25.93;60.45
31299;BME280;17927;52.350;13.402;2022-08-19T02:50:16;100450.84;;;25.93;60.52
31299;BME280;17927;52.350;13.402;2022-08-19T02:52:42;100456.13;;;25.95;60.61
31299;BME280;17927;52.350;13.402;2022-08-19T02:55:08;100443.13;;;25.95;60.19
31299;BME280;17927;52.350;13.402;2022-08-19T02:57:33;100444.81;;;25.96;60.34
31299;BME280;17927;52.350;13.402;2022-08-19T02:59:59;100437.34;;;25.97;60.36
31299;BME280;17927;52.350;13.402;2022-08-19T03:02:25;100437.34;;;25.97;60.45
31299;BME280;17927;52.350;13.402;2022-08-19T03:04:50;100434.00;;;25.95;60.17
31299;BME280;17927;52.350;13.402;2022-08-19T03:07:16;100444.47;;;25.93;60.39
31299;BME280;17927;52.350;13.402;2022-08-19T03:09:43;100452.19;;;25.91;60.43
31299;BME280;17927;52.350;13.402;2022-08-19T03:12:09;100452.94;;;25.86;60.10
31299;BME280;17927;52.350;13.402;2022-08-19T03:14:35;100452.63;;;25.82;60.04
31299;BME280;17927;52.350;13.402;2022-08-19T03:17:01;100455.38;;;25.82;60.04
31299;BME280;17927;52.350;13.402;2022-08-19T03:19:26;100450.94;;;25.81;60.11
31299;BME280;17927;52.350;13.402;2022-08-19T03:21:52;100453.38;;;25.78;60.16
31299;BME280;17927;52.350;13.402;2022-08-19T03:24:18;100446.44;;;25.75;60.49
31299;BME280;17927;52.350;13.402;2022-08-19T03:26:49;100448.59;;;25.73;60.48
31299;BME280;17927;52.350;13.402;2022-08-19T03:29:15;100447.16;;;25.71;60.29
31299;BME280;17927;52.350;13.402;2022-08-19T03:31:42;100433.34;;;25.71;60.57
31299;BME280;17927;52.350;13.402;2022-08-19T03:34:08;100425.88;;;25.71;60.48
31299;BME280;17927;52.350;13.402;2022-08-19T03:36:35;100429.75;;;25.70;60.62
31299;BME280;17927;52.350;13.402;2022-08-19T03:39:00;100423.88;;;25.66;60.61
31299;BME280;17927;52.350;13.402;2022-08-19T03:41:28;100428.56;;;25.66;60.63
31299;BME280;17927;52.350;13.402;2022-08-19T03:43:55;100439.03;;;25.64;60.72
31299;BME280;17927;52.350;13.402;2022-08-19T03:46:24;100436.84;;;25.66;60.84
31299;BME280;17927;52.350;13.402;2022-08-19T03:48:51;100427.47;;;25.67;61.05
31299;BME280;17927;52.350;13.402;2022-08-19T03:51:21;100429.16;;;25.68;60.90
31299;BME280;17927;52.350;13.402;2022-08-19T03:53:47;100432.50;;;25.70;60.65
31299;BME280;17927;52.350;13.402;2022-08-19T03:56:13;100433.34;;;25.71;60.77
31299;BME280;17927;52.350;13.402;2022-08-19T03:58:40;100444.16;;;25.72;60.68
31299;BME280;17927;52.350;13.402;2022-08-19T04:01:11;100444.16;;;25.72;60.88
31299;BME280;17927;52.350;13.402;2022-08-19T04:03:38;100454.97;;;25.74;60.92
31299;BME280;17927;52.350;13.402;2022-08-19T04:06:15;100451.97;;;25.75;61.00
31299;BME280;17927;52.350;13.402;2022-08-19T04:08:42;100459.19;;;25.76;61.22
31299;BME280;17927;52.350;13.402;2022-08-19T04:11:10;100460.81;;;25.77;61.40
31299;BME280;17927;52.350;13.402;2022-08-19T04:13:35;100472.47;;;25.79;60.96
31299;BME280;17927;52.350;13.402;2022-08-19T04:16:01;100463.94;;;25.81;61.35
31299;BME280;17927;52.350;13.402;2022-08-19T04:18:26;100465.84;;;25.80;61.12
31299;BME280;17927;52.350;13.402;2022-08-19T04:20:54;100468.38;;;25.82;61.10
31299;BME280;17927;52.350;13.402;2022-08-19T04:23:19;100477.28;;;25.84;61.27
31299;BME280;17927;52.350;13.402;2022-08-19T04:25:45;100475.34;;;25.84;61.08
31299;BME280;17927;52.350;13.402;2022-08-19T04:28:12;100473.16;;;25.87;61.13
31299;BME280;17927;52.350;13.402;2022-08-19T04:30:43;100473.75;;;25.89;61.21
31299;BME280;17927;52.350;13.402;2022-08-19T04:33:09;100466.53;;;25.88;61.39
31299;BME280;17927;52.350;13.402;2022-08-19T04:35:37;100462.41;;;25.90;60.91
31299;BME280;17927;52.350;13.402;2022-08-19T04:38:02;100459.41;;;25.92;61.20
31299;BME280;17927;52.350;13.402;2022-08-19T04:40:28;100459.16;;;25.93;61.32
31299;BME280;17927;52.350;13.402;2022-08-19T04:43:12;100463.00;;;25.92;61.26
31299;BME280;17927;52.350;13.402;2022-08-19T04:45:38;100466.94;;;25.96;61.56
31299;BME280;17927;52.350;13.402;2022-08-19T04:48:03;100449.25;;;25.97;61.47
31299;BME280;17927;52.350;13.402;2022-08-19T04:50:29;100457.03;;;26.00;61.50
31299;BME280;17927;52.350;13.402;2022-08-19T04:52:55;100465.09;;;26.02;61.35
31299;BME280;17927;52.350;13.402;2022-08-19T04:55:20;100465.69;;;26.04;61.58
31299;BME280;17927;52.350;13.402;2022-08-19T04:57:45;100457.69;;;26.08;61.34
31299;BME280;17927;52.350;13.402;2022-08-19T05:00:11;100458.06;;;26.11;61.92
31299;BME280;17927;52.350;13.402;2022-08-19T05:02:37;100454.78;;;26.14;61.74
31299;BME280;17927;52.350;13.402;2022-08-19T05:05:03;100447.06;;;26.17;61.80
31299;BME280;17927;52.350;13.402;2022-08-19T05:07:28;100443.81;;;26.20;61.65
31299;BME280;17927;52.350;13.402;2022-08-19T05:09:54;100437.50;;;26.24;61.72
31299;BME280;17927;52.350;13.402;2022-08-19T05:12:20;100440.56;;;26.28;61.89
31299;BME280;17927;52.350;13.402;2022-08-19T05:14:45;100438.97;;;26.32;61.67
31299;BME280;17927;52.350;13.402;2022-08-19T05:17:12;100433.25;;;26.39;61.72
31299;BME280;17927;52.350;13.402;2022-08-19T05:19:37;100435.59;;;26.47;61.75
31299;BME280;17927;52.350;13.402;2022-08-19T05:22:21;100441.50;;;26.56;61.99
31299;BME280;17927;52.350;13.402;2022-08-19T05:25:09;100439.44;;;26.68;61.93
31299;BME280;17927;52.350;13.402;2022-08-19T05:27:35;100432.34;;;26.78;61.97
31299;BME280;17927;52.350;13.402;2022-08-19T05:30:01;100441.34;;;26.85;61.42
31299;BME280;17927;52.350;13.402;2022-08-19T05:32:27;100433.91;;;26.90;61.34
31299;BME280;17927;52.350;13.402;2022-08-19T05:34:52;100443.13;;;26.96;61.06
31299;BME280;17927;52.350;13.402;2022-08-19T05:37:17;100438.97;;;26.99;60.79
31299;BME280;17927;52.350;13.402;2022-08-19T05:39:43;100446.78;;;27.02;60.67
31299;BME280;17927;52.350;13.402;2022-08-19T05:42:10;100447.09;;;27.05;60.63
31299;BME280;17927;52.350;13.402;2022-08-19T05:44:40;100449.91;;;27.11;60.55
31299;BME280;17927;52.350;13.402;2022-08-19T05:47:09;100458.81;;;27.13;60.33
31299;BME280;17927;52.350;13.402;2022-08-19T05:49:35;100447.44;;;27.14;60.19
31299;BME280;17927;52.350;13.402;2022-08-19T05:52:07;100455.75;;;27.14;59.87
31299;BME280;17927;52.350;13.402;2022-08-19T05:54:33;100466.53;;;27.11;59.86
31299;BME280;17927;52.350;13.402;2022-08-19T05:57:00;100468.22;;;27.12;59.86
31299;BME280;17927;52.350;13.402;2022-08-19T05:59:26;100465.44;;;27.12;59.83
31299;BME280;17927;52.350;13.402;2022-08-19T06:01:53;100463.50;;;27.12;59.60
31299;BME280;17927;52.350;13.402;2022-08-19T06:04:22;100464.28;;;27.08;59.79
31299;BME280;17927;52.350;13.402;2022-08-19T06:06:49;100460.41;;;27.09;60.03
31299;BME280;17927;52.350;13.402;2022-08-19T06:09:16;100461.28;;;27.09;59.89
31299;BME280;17927;52.350;13.402;2022-08-19T06:11:50;100457.66;;;27.09;59.83
31299;BME280;17927;52.350;13.402;2022-08-19T06:14:23;100458.50;;;27.09;59.68
31299;BME280;17927;52.350;13.402;2022-08-19T06:16:49;100453.25;;;27.13;59.91
31299;BME280;17927;52.350;13.402;2022-08-19T06:19:19;100456.63;;;27.15;59.93
31299;BME280;17927;52.350;13.402;2022-08-19T06:21:46;100459.97;;;27.17;59.82
31299;BME280;17927;52.350;13.402;2022-08-19T06:24:14;100463.28;;;27.19;59.66
31299;BME280;17927;52.350;13.402;2022-08-19T06:26:42;100469.16;;;27.23;59.87
31299;BME280;17927;52.350;13.402;2022-08-19T06:29:09;100475.84;;;27.27;59.91
31299;BME280;17927;52.350;13.402;2022-08-19T06:31:35;100482.53;;;27.31;59.92
31299;BME280;17927;52.350;13.402;2022-08-19T06:34:05;100489.25;;;27.35;59.81
31299;BME280;17927;52.350;13.402;2022-08-19T06:36:37;100500.66;;;27.39;60.11
31299;BME280;17927;52.350;13.402;2022-08-19T06:39:11;100507.59;;;27.41;59.86
31299;BME280;17927;52.350;13.402;2022-08-19T06:41:39;100515.41;;;27.44;59.87
31299;BME280;17927;52.350;13.402;2022-08-19T06:44:05;100518.78;;;27.46;59.75
31299;BME280;17927;52.350;13.402;2022-08-19T06:46:31;100512.13;;;27.47;59.69
31299;BME280;17927;52.350;13.402;2022-08-19T06:48:57;100515.22;;;27.51;59.88
31299;BME280;17927;52.350;13.402;2022-08-19T06:51:22;100505.28;;;27.55;59.97
31299;BME280;17927;52.350;13.402;2022-08-19T06:53:50;100509.22;;;27.59;60.02
31299;BME280;17927;52.350;13.402;2022-08-19T06:56:17;100503.97;;;27.63;59.78
31299;BME280;17927;52.350;13.402;2022-08-19T06:58:42;100504.25;;;27.66;59.84
31299;BME280;17927;52.350;13.402;2022-08-19T07:01:09;100497.09;;;27.71;59.66
31299;BME280;17927;52.350;13.402;2022-08-19T07:03:36;100501.25;;;27.73;59.29
31299;BME280;17927;52.350;13.402;2022-08-19T07:06:05;100493.50;;;27.75;59.30
31299;BME280;17927;52.350;13.402;2022-08-19T07:08:32;100484.94;;;27.77;59.42
31299;BME280;17927;52.350;13.402;2022-08-19T07:10:57;100498.25;;;27.80;59.48
31299;BME280;17927;52.350;13.402;2022-08-19T07:13:22;100509.69;;;27.84;59.30
31299;BME280;17927;52.350;13.402;2022-08-19T07:15:48;100506.94;;;27.89;58.97
31299;BME280;17927;52.350;13.402;2022-08-19T07:18:15;100514.22;;;27.95;59.29
31299;BME280;17927;52.350;13.402;2022-08-19T07:20:41;100527.03;;;28.01;59.21
31299;BME280;17927;52.350;13.402;2022-08-19T07:23:08;100520.16;;;28.09;59.16
31299;BME280;17927;52.350;13.402;2022-08-19T07:25:36;100525.22;;;28.17;59.11
31299;BME280;17927;52.350;13.402;2022-08-19T07:28:01;100525.84;;;28.24;58.86
31299;BME280;17927;52.350;13.402;2022-08-19T07:30:26;100525.88;;;28.30;58.41
31299;BME280;17927;52.350;13.402;2022-08-19T07:32:52;100524.25;;;28.34;58.71
31299;BME280;17927;52.350;13.402;2022-08-19T07:35:17;100530.09;;;28.37;58.22
31299;BME280;17927;52.350;13.402;2022-08-19T07:37:44;100523.19;;;28.40;57.91
31299;BME280;17927;52.350;13.402;2022-08-19T07:40:10;100530.94;;;28.43;58.08
31299;BME280;17927;52.350;13.402;2022-08-19T07:42:36;100530.16;;;28.48;58.25
31299;BME280;17927;52.350;13.402;2022-08-19T07:45:01;100537.94;;;28.51;58.13
31299;BME280;17927;52.350;13.402;2022-08-19T07:47:27;100543.81;;;28.54;57.74
31299;BME280;17927;52.350;13.402;2022-08-19T07:49:53;100543.25;;;28.57;58.00
31299;BME280;17927;52.350;13.402;2022-08-19T07:52:18;100547.16;;;28.62;57.89
31299;BME280;17927;52.350;13.402;2022-08-19T07:54:43;100552.19;;;28.65;57.61
31299;BME280;17927;52.350;13.402;2022-08-19T07:57:09;100556.94;;;28.69;57.92
31299;BME280;17927;52.350;13.402;2022-08-19T07:59:34;100557.50;;;28.71;57.54
31299;BME280;17927;52.350;13.402;2022-08-19T08:02:00;100567.00;;;28.76;57.59
31299;BME280;17927;52.350;13.402;2022-08-19T08:04:26;100560.06;;;28.78;57.33
31299;BME280;17927;52.350;13.402;2022-08-19T08:07:10;100561.19;;;28.77;57.34
31299;BME280;17927;52.350;13.402;2022-08-19T08:09:54;100573.97;;;28.78;57.27
31299;BME280;17927;52.350;13.402;2022-08-19T08:12:23;100580.91;;;28.81;57.18
31299;BME280;17927;52.350;13.402;2022-08-19T08:14:53;100575.09;;;28.82;56.99
31299;BME280;17927;52.350;13.402;2022-08-19T08:17:24;100581.22;;;28.84;56.92
31299;BME280;17927;52.350;13.402;2022-08-19T08:19:50;100570.13;;;28.84;57.05
31299;BME280;17927;52.350;13.402;2022-08-19T08:22:18;100577.06;;;28.87;56.99
31299;BME280;17927;52.350;13.402;2022-08-19T08:25:13;100577.34;;;28.85;56.88
31299;BME280;17927;52.350;13.402;2022-08-19T08:27:41;100577.34;;;28.85;56.80
31299;BME280;17927;52.350;13.402;2022-08-19T08:30:07;100575.41;;;28.86;56.86
31299;BME280;17927;52.350;13.402;2022-08-19T08:32:35;100580.94;;;28.86;56.62
31299;BME280;17927;52.350;13.402;2022-08-19T08:35:00;100581.22;;;28.84;56.89
31299;BME280;17927;52.350;13.402;2022-08-19T08:37:25;100583.16;;;28.84;57.25
31299;BME280;17927;52.350;13.402;2022-08-19T08:39:51;100576.50;;;28.85;57.49
31299;BME280;17927;52.350;13.402;2022-08-19T08:42:21;100587.09;;;28.88;57.45
31299;BME280;17927;52.350;13.402;2022-08-19T08:45:03;100594.03;;;28.91;57.34
31299;BME280;17927;52.350;13.402;2022-08-19T08:47:35;100584.34;;;28.93;57.23
31299;BME280;17927;52.350;13.402;2022-08-19T08:50:07;100580.16;;;28.96;57.17
31299;BME280;17927;52.350;13.402;2022-08-19T08:52:42;100580.47;;;28.99;57.63
31299;BME280;17927;52.350;13.402;2022-08-19T08:55:16;100578.81;;;29.04;57.56
31299;BME280;17927;52.350;13.402;2022-08-19T09:00:24;100581.09;;;29.12;57.77
31299;BME280;17927;52.350;13.402;2022-08-19T09:02:51;100590.28;;;29.17;57.66
31299;BME280;17927;52.350;13.402;2022-08-19T09:05:18;100587.50;;;29.23;57.35
31299;BME280;17927;52.350;13.402;2022-08-19T09:08:00;100583.34;;;29.25;57.00
31299;BME280;17927;52.350;13.402;2022-08-19T09:10:36;100591.94;;;29.24;56.85
31299;BME280;17927;52.350;13.402;2022-08-19T09:13:19;100590.28;;;29.23;56.88
31299;BME280;17927;52.350;13.402;2022-08-19T09:15:52;100588.88;;;29.20;57.10
31299;BME280;17927;52.350;13.402;2022-08-19T09:18:19;100587.22;;;29.19;57.09
31299;BME280;17927;52.350;13.402;2022-08-19T09:20:46;100584.16;;;29.21;57.20
31299;BME280;17927;52.350;13.402;2022-08-19T09:23:15;100569.13;;;29.22;57.26
31299;BME280;17927;52.350;13.402;2022-08-19T09:25:41;100573.34;;;29.24;57.19
31299;BME280;17927;52.350;13.402;2022-08-19T09:28:07;100572.81;;;29.27;57.13
31299;BME280;17927;52.350;13.402;2022-08-19T09:30:39;100572.78;;;29.32;56.52
31299;BME280;17927;52.350;13.402;2022-08-19T09:33:05;100563.66;;;29.37;57.20
31299;BME280;17927;52.350;13.402;2022-08-19T09:35:31;100570.91;;;29.43;57.07
31299;BME280;17927;52.350;13.402;2022-08-19T09:37:57;100573.72;;;29.49;56.44
31299;BME280;17927;52.350;13.402;2022-08-19T09:40:23;100582.34;;;29.52;56.44
31299;BME280;17927;52.350;13.402;2022-08-19T09:42:49;100576.22;;;29.55;56.66
31299;BME280;17927;52.350;13.402;2022-08-19T09:45:16;100576.50;;;29.59;56.42
31299;BME280;17927;52.350;13.402;2022-08-19T09:47:42;100580.69;;;29.67;56.11
31299;BME280;17927;52.350;13.402;2022-08-19T09:50:11;100574.59;;;29.70;56.12
31299;BME280;17927;52.350;13.402;2022-08-19T09:52:37;100573.19;;;29.72;55.65
31299;BME280;17927;52.350;13.402;2022-08-19T09:55:07;100569.00;;;29.75;55.77
31299;BME280;17927;52.350;13.402;2022-08-19T09:57:34;100571.53;;;29.76;55.66
31299;BME280;17927;52.350;13.402;2022-08-19T09:59:59;100567.91;;;29.81;55.31
31299;BME280;17927;52.350;13.402;2022-08-19T10:02:25;100565.97;;;29.87;55.84
31299;BME280;17927;52.350;13.402;2022-08-19T10:04:50;100566.53;;;29.94;56.03
31299;BME280;17927;52.350;13.402;2022-08-19T10:07:34;100575.19;;;29.98;55.75
31299;BME280;17927;52.350;13.402;2022-08-19T10:10:00;100575.47;;;30.01;55.87
31299;BME280;17927;52.350;13.402;2022-08-19T10:12:25;100576.56;;;30.00;55.44
31299;BME280;17927;52.350;13.402;2022-08-19T10:14:51;100572.41;;;29.98;55.16
31299;BME280;17927;52.350;13.402;2022-08-19T10:17:18;100588.81;;;29.94;54.34
31299;BME280;17927;52.350;13.402;2022-08-19T10:19:43;100573.19;;;29.88;54.57
31299;BME280;17927;52.350;13.402;2022-08-19T10:22:09;100583.78;;;29.81;54.03
31299;BME280;17927;52.350;13.402;2022-08-19T10:24:39;100580.44;;;29.73;54.12
31299;BME280;17927;52.350;13.402;2022-08-19T10:27:05;100584.63;;;29.71;54.65
31299;BME280;17927;52.350;13.402;2022-08-19T10:29:30;100575.97;;;29.67;54.28
31299;BME280;17927;52.350;13.402;2022-08-19T10:31:57;100575.13;;;29.67;54.40
31299;BME280;17927;52.350;13.402;2022-08-19T10:34:23;100577.06;;;29.61;54.17
31299;BME280;17927;52.350;13.402;2022-08-19T10:36:48;100571.25;;;29.57;54.21
31299;BME280;17927;52.350;13.402;2022-08-19T10:39:13;100573.72;;;29.54;54.25
31299;BME280;17927;52.350;13.402;2022-08-19T10:41:39;100574.81;;;29.53;54.66
31299;BME280;17927;52.350;13.402;2022-08-19T10:44:11;100572.31;;;29.51;54.51
31299;BME280;17927;52.350;13.402;2022-08-19T10:46:40;100574.53;;;29.49;54.35
31299;BME280;17927;52.350;13.402;2022-08-19T10:49:10;100575.94;;;29.46;54.48
31299;BME280;17927;52.350;13.402;2022-08-19T10:51:37;100580.38;;;29.47;54.62
31299;BME280;17927;52.350;13.402;2022-08-19T10:54:21;100586.22;;;29.41;54.41
31299;BME280;17927;52.350;13.402;2022-08-19T10:56:46;100587.88;;;29.37;54.27
31299;BME280;17927;52.350;13.402;2022-08-19T10:59:22;100577.53;;;29.32;54.43
31299;BME280;17927;52.350;13.402;2022-08-19T11:01:50;100589.19;;;29.29;54.76
31299;BME280;17927;52.350;13.402;2022-08-19T11:04:16;100595.88;;;29.28;54.54
31299;BME280;17927;52.350;13.402;2022-08-19T11:06:46;100588.34;;;29.23;54.37
31299;BME280;17927;52.350;13.402;2022-08-19T11:09:14;100583.63;;;29.19;54.82
31299;BME280;17927;52.350;13.402;2022-08-19T11:11:40;100585.81;;;29.16;54.73
31299;BME280;17927;52.350;13.402;2022-08-19T11:14:08;100589.19;;;29.19;55.02
31299;BME280;17927;52.350;13.402;2022-08-19T11:16:34;100580.84;;;29.19;54.69
31299;BME280;17927;52.350;13.402;2022-08-19T11:19:00;100589.19;;;29.19;54.68
31299;BME280;17927;52.350;13.402;2022-08-19T11:21:31;100589.72;;;29.21;54.57
31299;BME280;17927;52.350;13.402;2022-08-19T11:24:03;100590.56;;;29.21;54.55
31299;BME280;17927;52.350;13.402;2022-08-19T11:26:30;100585.81;;;29.22;54.55
31299;BME280;17927;52.350;13.402;2022-08-19T11:28:57;100585.81;;;29.22;54.54
31299;BME280;17927;52.350;13.402;2022-08-19T11:31:34;100591.38;;;29.22;54.60
31299;BME280;17927;52.350;13.402;2022-08-19T11:34:03;100584.16;;;29.21;54.66
31299;BME280;17927;52.350;13.402;2022-08-19T11:36:29;100584.16;;;29.21;54.56
31299;BME280;17927;52.350;13.402;2022-08-19T11:38:54;100598.34;;;29.19;54.53
31299;BME280;17927;52.350;13.402;2022-08-19T11:41:21;100592.78;;;29.19;54.36
31299;BME280;17927;52.350;13.402;2022-08-19T11:43:49;100601.41;;;29.17;54.28
31299;BME280;17927;52.350;13.402;2022-08-19T11:46:15;100599.44;;;29.18;54.23
31299;BME280;17927;52.350;13.402;2022-08-19T11:48:41;100611.69;;;29.17;54.30
31299;BME280;17927;52.350;13.402;2022-08-19T11:51:09;100613.63;;;29.16;54.14
31299;BME280;17927;52.350;13.402;2022-08-19T11:53:36;100620.31;;;29.15;54.53
31299;BME280;17927;52.350;13.402;2022-08-19T11:56:02;100613.63;;;29.16;54.57
31299;BME280;17927;52.350;13.402;2022-08-19T11:58:27;100623.38;;;29.19;54.42
31299;BME280;17927;52.350;13.402;2022-08-19T12:00:54;100623.94;;;29.21;54.45
31299;BME280;17927;52.350;13.402;2022-08-19T12:03:19;100616.16;;;29.23;54.45
31299;BME280;17927;52.350;13.402;2022-08-19T12:05:45;100620.34;;;29.26;54.47
31299;BME280;17927;52.350;13.402;2022-08-19T12:08:10;100616.72;;;29.30;54.31
31299;BME280;17927;52.350;13.402;2022-08-19T12:10:37;100626.50;;;29.33;54.41
31299;BME280;17927;52.350;13.402;2022-08-19T12:13:03;100632.06;;;29.33;54.06
31299;BME280;17927;52.350;13.402;2022-08-19T12:15:28;100628.16;;;29.34;54.33
31299;BME280;17927;52.350;13.402;2022-08-19T12:17:54;100625.38;;;29.34;54.49
31299;BME280;17927;52.350;13.402;2022-08-19T12:20:22;100627.31;;;29.33;54.14
31299;BME280;17927;52.350;13.402;2022-08-19T12:22:47;100631.19;;;29.32;54.09
31299;BME280;17927;52.350;13.402;2022-08-19T12:25:13;100637.88;;;29.31;54.17
31299;BME280;17927;52.350;13.402;2022-08-19T12:27:39;100635.94;;;29.32;54.41
31299;BME280;17927;52.350;13.402;2022-08-19T12:30:07;100642.94;;;29.35;54.30
31299;BME280;17927;52.350;13.402;2022-08-19T12:32:33;100646.84;;;29.39;53.93
31299;BME280;17927;52.350;13.402;2022-08-19T12:34:59;100642.97;;;29.40;54.21
31299;BME280;17927;52.350;13.402;2022-08-19T12:37:24;100632.13;;;29.43;54.02
31299;BME280;17927;52.350;13.402;2022-08-19T12:39:49;100628.78;;;29.46;53.78
31299;BME280;17927;52.350;13.402;2022-08-19T12:42:15;100633.81;;;29.50;53.85
31299;BME280;17927;52.350;13.402;2022-08-19T12:44:42;100624.91;;;29.53;54.03
31299;BME280;17927;52.350;13.402;2022-08-19T12:47:09;100621.00;;;29.54;53.84